Palm Springs, California
Current Conditions -  °F | °C
As of 2:53 PM on Friday 28 Nov 2014 (Local Time) from KPSP Reporting Station
Clear Clear  
Wind Chill: 28°   Ceiling: Unl
Heat Index: 28°   Visibility: 10mi
Dew Point: -4°   Wind: 6mph
Humidity: 12%   Direction: 100°E
Pressure: 29.89"   Gusts: NA
Location:  33.82°N, 116.51°W
Report Text: KPSP 282253Z 10005KT 10SM CLR 28/M04 A2989 RMK AO2 SLP120 T02781039
Loading
Personal Weather Stations






























Interactive Weather Map New forecast layout! Learn more

10-Day Weather Forecast

Advertisements
Track Severe Weather on mobile